createdAt,value
2023-01-19T00:00:54.014Z,97080.28
2023-01-19T00:03:21.865Z,97070.38
2023-01-19T00:05:48.920Z,97071.22
2023-01-19T00:08:16.201Z,97067.44
2023-01-19T00:10:49.395Z,97079.72
2023-01-19T00:13:16.496Z,97079.72
2023-01-19T00:15:44.173Z,97085.84
2023-01-19T00:18:11.357Z,97080.41
2023-01-19T00:20:39.713Z,97080.72
2023-01-19T00:23:08.419Z,97081.56
2023-01-19T00:25:36.159Z,97076.56
2023-01-19T00:28:03.147Z,97073.56
2023-01-19T00:30:30.165Z,97077.38
2023-01-19T00:32:57.184Z,97081.69
2023-01-19T00:35:24.218Z,97083.03
2023-01-19T00:37:51.480Z,97083.03
2023-01-19T00:40:18.952Z,97089.31
2023-01-19T00:42:46.114Z,97085.31
2023-01-19T00:45:22.015Z,97078.19
2023-01-19T00:47:54.909Z,97089.78
2023-01-19T00:50:21.792Z,97091.94
2023-01-19T00:52:48.707Z,97084.59
2023-01-19T00:55:16.790Z,97051.78
2023-01-19T00:57:44.026Z,97068.03
2023-01-19T01:00:17.754Z,97028.75
2023-01-19T01:02:44.988Z,97062.00
2023-01-19T01:05:13.351Z,97072.16
2023-01-19T01:07:44.202Z,97064.72
2023-01-19T01:10:29.467Z,97059.88
2023-01-19T01:12:58.924Z,97066.69
2023-01-19T01:15:28.233Z,97071.31
2023-01-19T01:17:55.434Z,97078.78
2023-01-19T01:20:27.255Z,97064.66
2023-01-19T01:22:55.670Z,97060.38
2023-01-19T01:25:26.199Z,97064.91
2023-01-19T01:27:53.930Z,97072.34
2023-01-19T01:30:21.722Z,97066.75
2023-01-19T01:32:49.200Z,97075.69
2023-01-19T01:35:17.047Z,97073.84
2023-01-19T01:37:44.398Z,97071.19
2023-01-19T01:40:14.110Z,97065.53
2023-01-19T01:42:42.603Z,97067.84
2023-01-19T01:45:38.596Z,97064.66
2023-01-19T01:48:17.426Z,97064.16
2023-01-19T01:51:10.175Z,97052.03
2023-01-19T01:53:39.049Z,97038.44
2023-01-19T01:56:12.600Z,97039.81
2023-01-19T01:58:40.785Z,97035.34
2023-01-19T02:01:29.227Z,97055.41
2023-01-19T02:03:57.749Z,97059.88
2023-01-19T02:06:25.646Z,97057.53
2023-01-19T02:09:50.865Z,97067.03
2023-01-19T02:12:53.316Z,97072.22
2023-01-19T02:15:43.019Z,97068.06
2023-01-19T02:18:27.761Z,97061.09
2023-01-19T02:21:34.346Z,97065.78
2023-01-19T02:24:22.756Z,97064.78
2023-01-19T02:27:08.629Z,97073.06
2023-01-19T02:29:53.175Z,97076.41
2023-01-19T02:32:20.161Z,97080.72
2023-01-19T02:34:47.137Z,97078.09
2023-01-19T02:37:17.514Z,97087.88
2023-01-19T02:40:00.715Z,97085.88
2023-01-19T02:42:33.535Z,97096.19
2023-01-19T02:45:01.175Z,97088.88
2023-01-19T02:47:28.113Z,97093.34
2023-01-19T02:49:59.730Z,97088.72
2023-01-19T02:52:28.292Z,97095.34
2023-01-19T02:55:18.527Z,97089.66
2023-01-19T02:57:53.458Z,97096.63
2023-01-19T03:00:20.405Z,97087.31
2023-01-19T03:03:15.576Z,97095.81
2023-01-19T03:06:09.023Z,97096.63
2023-01-19T03:09:11.101Z,97102.75
2023-01-19T03:11:42.326Z,97102.09
2023-01-19T03:14:14.871Z,97095.97
2023-01-19T03:16:46.080Z,97066.09
2023-01-19T03:19:22.188Z,97092.13
2023-01-19T03:21:54.849Z,97095.25
2023-01-19T03:24:24.841Z,97090.31
2023-01-19T03:27:01.262Z,97095.44
2023-01-19T03:29:35.159Z,97074.72
2023-01-19T03:32:07.212Z,97094.66
2023-01-19T03:34:36.277Z,97080.53
2023-01-19T03:37:05.327Z,97091.63
2023-01-19T03:39:32.521Z,97096.28
2023-01-19T03:42:04.453Z,97099.94
2023-01-19T03:44:35.040Z,97101.44
2023-01-19T03:47:03.056Z,97097.28
2023-01-19T03:49:32.013Z,97096.63
2023-01-19T03:51:59.517Z,97117.66
2023-01-19T03:54:26.894Z,97119.16
2023-01-19T03:56:54.244Z,97120.81
2023-01-19T03:59:22.114Z,97113.38
2023-01-19T04:01:49.620Z,97117.19
2023-01-19T04:04:16.905Z,97113.53
2023-01-19T04:06:44.208Z,97113.56
2023-01-19T04:09:11.222Z,97120.53
2023-01-19T04:11:38.213Z,97133.44
2023-01-19T04:14:05.237Z,97124.50
2023-01-19T04:16:32.169Z,97120.00
2023-01-19T04:18:59.027Z,97121.53
2023-01-19T04:21:26.018Z,97128.63
2023-01-19T04:23:53.475Z,97135.09
2023-01-19T04:26:20.689Z,97140.41
2023-01-19T04:28:47.588Z,97146.38
2023-01-19T04:31:14.733Z,97135.97
2023-01-19T04:33:41.710Z,97127.16
2023-01-19T04:36:09.004Z,97130.16
2023-01-19T04:38:36.352Z,97129.00
2023-01-19T04:41:03.487Z,97118.19
2023-01-19T04:43:30.420Z,97118.06
2023-01-19T04:45:57.431Z,97130.50
2023-01-19T04:48:24.427Z,97140.59
2023-01-19T04:50:52.777Z,97163.66
2023-01-19T04:53:19.930Z,97163.81
2023-01-19T04:55:47.038Z,97159.47
2023-01-19T04:58:14.151Z,97172.59
2023-01-19T05:00:41.114Z,97176.09
2023-01-19T05:03:08.162Z,97167.94
2023-01-19T05:05:35.264Z,97177.41
2023-01-19T05:08:02.730Z,97181.91
2023-01-19T05:10:29.786Z,97181.72
2023-01-19T05:12:56.789Z,97179.59
2023-01-19T05:15:23.902Z,97167.63
2023-01-19T05:17:50.955Z,97163.31
2023-01-19T05:20:18.103Z,97173.94
2023-01-19T05:22:52.909Z,97175.59
2023-01-19T05:25:20.158Z,97161.34
2023-01-19T05:27:47.181Z,97126.53
2023-01-19T05:30:14.736Z,97164.97
2023-01-19T05:32:41.705Z,97173.78
2023-01-19T05:35:09.271Z,97170.47
2023-01-19T05:37:36.318Z,97171.63
2023-01-19T05:40:03.449Z,97153.88
2023-01-19T05:42:32.133Z,97149.56
2023-01-19T05:44:59.851Z,97152.69
2023-01-19T05:47:26.903Z,97141.44
2023-01-19T05:49:53.844Z,97157.19
2023-01-19T05:52:20.803Z,97164.66
2023-01-19T05:54:48.528Z,97152.38
2023-01-19T05:57:15.565Z,97161.16
2023-01-19T05:59:43.860Z,97161.50
2023-01-19T06:02:11.027Z,97159.34
2023-01-19T06:04:38.116Z,97149.88
2023-01-19T06:07:07.166Z,97143.41
2023-01-19T06:09:34.267Z,97147.06
2023-01-19T06:12:01.321Z,97145.41
2023-01-19T06:14:28.376Z,97115.56
2023-01-19T06:16:55.316Z,97152.69
2023-01-19T06:19:22.242Z,97155.50
2023-01-19T06:21:52.492Z,97159.34
2023-01-19T06:24:20.034Z,97161.31
2023-01-19T06:26:47.279Z,97173.94
2023-01-19T06:29:14.810Z,97173.75
2023-01-19T06:31:42.216Z,97193.50
2023-01-19T06:34:10.174Z,97189.84
2023-01-19T06:36:37.178Z,97193.16
2023-01-19T06:39:06.190Z,97199.50
2023-01-19T06:41:36.954Z,97204.13
2023-01-19T06:44:04.026Z,97212.09
2023-01-19T06:46:31.556Z,97223.41
2023-01-19T06:48:58.518Z,97226.38
2023-01-19T06:51:25.782Z,97226.53
2023-01-19T06:53:52.709Z,97237.00
2023-01-19T06:56:19.631Z,97248.78
2023-01-19T06:58:48.653Z,97256.91
2023-01-19T07:01:15.813Z,97275.50
2023-01-19T07:03:42.923Z,97256.56
2023-01-19T07:06:10.214Z,97268.84
2023-01-19T07:08:38.727Z,97276.47
2023-01-19T07:11:25.279Z,97285.78
2023-01-19T07:13:55.970Z,97281.78
2023-01-19T07:16:24.060Z,97270.84
2023-01-19T07:18:51.455Z,97281.78
2023-01-19T07:21:19.373Z,97283.44
2023-01-19T07:23:52.577Z,97281.78
2023-01-19T07:26:21.619Z,97284.28
2023-01-19T07:28:49.046Z,97285.59
2023-01-19T07:31:16.357Z,97283.78
2023-01-19T07:33:43.441Z,97277.81
2023-01-19T07:36:10.957Z,97273.66
2023-01-19T07:38:37.971Z,97272.66
2023-01-19T07:41:07.999Z,97271.34
2023-01-19T07:43:35.326Z,97276.16
2023-01-19T07:46:04.994Z,97293.13
2023-01-19T07:48:32.046Z,97277.47
2023-01-19T07:51:05.935Z,97271.50
2023-01-19T07:53:33.050Z,97280.28
2023-01-19T07:56:00.112Z,97272.78
2023-01-19T07:58:27.108Z,97295.22
2023-01-19T08:00:54.281Z,97297.38
2023-01-19T08:03:21.316Z,97306.19
2023-01-19T08:05:53.009Z,97311.66
2023-01-19T08:08:20.687Z,97309.66
2023-01-19T08:10:50.777Z,97312.50
2023-01-19T08:13:18.096Z,97328.91
2023-01-19T08:15:45.315Z,97321.56
2023-01-19T08:18:12.262Z,97324.25
2023-01-19T08:20:39.420Z,97332.22
2023-01-19T08:23:06.393Z,97331.06
2023-01-19T08:25:35.482Z,97343.84
2023-01-19T08:28:03.690Z,97343.84
2023-01-19T08:30:30.797Z,97330.22
2023-01-19T08:33:04.357Z,97339.03
2023-01-19T08:35:32.829Z,97347.31
2023-01-19T08:38:01.814Z,97334.22
2023-01-19T08:40:36.518Z,97316.16
2023-01-19T08:43:08.067Z,97322.28
2023-01-19T08:45:41.662Z,97326.09
2023-01-19T08:48:08.761Z,97325.06
2023-01-19T08:50:35.759Z,97313.56
2023-01-19T08:53:06.540Z,97299.97
2023-01-19T08:55:36.108Z,97306.97
2023-01-19T08:58:04.614Z,97316.91
2023-01-19T09:00:38.204Z,97323.53
2023-01-19T09:03:09.200Z,97266.97
2023-01-19T09:05:39.016Z,97288.16
2023-01-19T09:08:09.487Z,97314.72
2023-01-19T09:10:38.271Z,97338.84
2023-01-19T09:13:08.650Z,97318.13
2023-01-19T09:15:37.879Z,97338.03
2023-01-19T09:18:08.012Z,97328.91
2023-01-19T09:20:36.378Z,97335.50
2023-01-19T09:23:03.697Z,97338.16
2023-01-19T09:25:31.629Z,97344.63
2023-01-19T09:28:00.771Z,97354.13
2023-01-19T09:30:28.087Z,97363.28
2023-01-19T09:32:55.118Z,97361.63
2023-01-19T09:35:22.276Z,97355.47
2023-01-19T09:37:49.214Z,97348.00
2023-01-19T09:40:20.966Z,97344.81
2023-01-19T09:42:53.728Z,97345.00
2023-01-19T09:45:32.861Z,97324.59
2023-01-19T09:48:01.842Z,97343.00
2023-01-19T09:50:40.049Z,97328.75
2023-01-19T09:53:50.799Z,97342.88
2023-01-19T09:56:20.435Z,97340.56
2023-01-19T09:58:49.648Z,97349.69
2023-01-19T10:01:37.786Z,97348.72
2023-01-19T10:04:19.492Z,97334.59
2023-01-19T10:06:48.625Z,97335.59
2023-01-19T10:09:32.129Z,97289.13
2023-01-19T10:12:24.184Z,97337.59
2023-01-19T10:15:05.198Z,97328.63
2023-01-19T10:17:46.922Z,97321.97
2023-01-19T10:20:45.262Z,97314.50
2023-01-19T10:23:36.847Z,97311.00
2023-01-19T10:26:10.683Z,97303.72
2023-01-19T10:28:39.090Z,97304.38
2023-01-19T10:31:07.741Z,97305.06
2023-01-19T10:33:35.543Z,97299.38
2023-01-19T10:36:28.623Z,97315.66
2023-01-19T10:38:55.679Z,97310.50
2023-01-19T10:41:30.873Z,97315.50
2023-01-19T10:44:04.602Z,97315.66
2023-01-19T10:46:44.425Z,97317.34
2023-01-19T10:49:37.528Z,97319.00
2023-01-19T10:52:07.796Z,97312.19
2023-01-19T10:54:37.616Z,97319.16
2023-01-19T10:57:11.975Z,97312.19
2023-01-19T10:59:53.364Z,97310.19
2023-01-19T11:02:26.766Z,97318.66
2023-01-19T11:04:56.103Z,97295.25
2023-01-19T11:07:33.840Z,97300.41
2023-01-19T11:10:22.123Z,97295.91
2023-01-19T11:13:13.757Z,97302.72
2023-01-19T11:15:59.136Z,97294.25
2023-01-19T11:18:36.831Z,97288.78
2023-01-19T11:21:16.215Z,97281.78
2023-01-19T11:23:52.987Z,97279.63
2023-01-19T11:26:41.263Z,97213.59
2023-01-19T11:29:24.156Z,97277.66
2023-01-19T11:31:53.425Z,97276.16
2023-01-19T11:34:23.419Z,97282.13
2023-01-19T11:37:05.662Z,97256.25
2023-01-19T11:39:50.059Z,97280.47
2023-01-19T11:42:19.132Z,97235.00
2023-01-19T11:44:49.014Z,97276.97
2023-01-19T11:47:43.043Z,97279.13
2023-01-19T11:50:24.411Z,97269.19
2023-01-19T11:53:30.927Z,97278.00
2023-01-19T11:56:14.432Z,97283.81
2023-01-19T11:58:48.475Z,97285.13
2023-01-19T12:01:34.581Z,97263.88
2023-01-19T12:04:12.083Z,97272.50
2023-01-19T12:06:44.782Z,97286.47
2023-01-19T12:09:26.250Z,97278.16
2023-01-19T12:12:08.120Z,97276.50
2023-01-19T12:14:53.373Z,97284.78
2023-01-19T12:17:47.625Z,97280.66
2023-01-19T12:20:29.525Z,97282.78
2023-01-19T12:23:26.031Z,97278.81
2023-01-19T12:26:05.058Z,97282.28
2023-01-19T12:28:37.326Z,97289.13
2023-01-19T12:31:04.786Z,97292.25
2023-01-19T12:33:37.955Z,97267.88
2023-01-19T12:36:07.232Z,97281.16
2023-01-19T12:38:41.137Z,97284.97
2023-01-19T12:41:38.536Z,97286.13
2023-01-19T12:44:11.528Z,97289.94
2023-01-19T12:46:43.661Z,97290.63
2023-01-19T12:49:35.660Z,97285.47
2023-01-19T12:52:34.453Z,97293.28
2023-01-19T12:55:20.233Z,97296.25
2023-01-19T12:58:02.288Z,97294.09
2023-01-19T13:00:34.247Z,97296.78
2023-01-19T13:03:05.337Z,97303.56
2023-01-19T13:05:33.113Z,97285.63
2023-01-19T13:08:03.422Z,97296.59
2023-01-19T13:11:09.787Z,97299.56
2023-01-19T13:13:44.135Z,97307.41
2023-01-19T13:16:20.102Z,97302.91
2023-01-19T13:18:57.670Z,97301.56
2023-01-19T13:21:48.799Z,97302.72
2023-01-19T13:24:17.196Z,97306.72
2023-01-19T13:27:05.100Z,97313.19
2023-01-19T13:29:35.757Z,97317.53
2023-01-19T13:32:07.213Z,97323.81
2023-01-19T13:34:40.869Z,97332.94
2023-01-19T13:37:18.944Z,97325.66
2023-01-19T13:39:50.299Z,97329.63
2023-01-19T13:42:41.925Z,97327.97
2023-01-19T13:45:38.293Z,97329.63
2023-01-19T13:48:08.168Z,97333.28
2023-01-19T13:50:40.520Z,97334.44
2023-01-19T13:53:34.406Z,97340.41
2023-01-19T13:56:18.684Z,97344.06
2023-01-19T13:59:05.276Z,97351.03
2023-01-19T14:01:33.304Z,97351.53
2023-01-19T14:04:00.520Z,97349.56
2023-01-19T14:06:36.957Z,97354.88
2023-01-19T14:09:19.485Z,97351.53
2023-01-19T14:12:04.294Z,97359.34
2023-01-19T14:14:31.457Z,97365.84
2023-01-19T14:16:59.719Z,97341.75
2023-01-19T14:19:26.735Z,97366.34
2023-01-19T14:22:02.159Z,97371.66
2023-01-19T14:24:32.215Z,97371.47
2023-01-19T14:27:12.260Z,97376.78
2023-01-19T14:29:39.319Z,97377.25
2023-01-19T14:32:16.163Z,97374.78
2023-01-19T14:34:45.328Z,97370.47
2023-01-19T14:37:36.359Z,97376.13
2023-01-19T14:40:18.665Z,97381.72
2023-01-19T14:42:57.767Z,97376.41
2023-01-19T14:45:33.774Z,97387.88
2023-01-19T14:48:04.227Z,97375.72
2023-01-19T14:50:41.483Z,97380.03
2023-01-19T14:53:16.195Z,97379.38
2023-01-19T14:55:49.837Z,97382.00
2023-01-19T14:58:19.242Z,97387.84
2023-01-19T15:00:48.053Z,97381.22
2023-01-19T15:03:15.214Z,97375.56
2023-01-19T15:05:47.167Z,97383.69
2023-01-19T15:08:24.131Z,97385.00
2023-01-19T15:10:51.379Z,97383.03
2023-01-19T15:13:22.607Z,97391.00
2023-01-19T15:15:50.506Z,97388.84
2023-01-19T15:18:22.520Z,97376.88
2023-01-19T15:20:49.464Z,97387.66
2023-01-19T15:23:16.355Z,97394.63
2023-01-19T15:25:44.547Z,97391.00
2023-01-19T15:28:19.542Z,97374.88
2023-01-19T15:30:46.781Z,97392.34
2023-01-19T15:33:25.371Z,97399.31
2023-01-19T15:35:53.237Z,97392.63
2023-01-19T15:38:22.616Z,97402.59
2023-01-19T15:40:51.630Z,97410.22
2023-01-19T15:43:18.871Z,97399.63
2023-01-19T15:46:02.614Z,97410.56
2023-01-19T15:48:29.748Z,97399.94
2023-01-19T15:50:56.668Z,97402.97
2023-01-19T15:53:24.587Z,97400.78
2023-01-19T15:55:55.393Z,97391.00
2023-01-19T15:58:23.854Z,97417.09
2023-01-19T16:00:58.678Z,97409.47
2023-01-19T16:03:26.450Z,97421.22
2023-01-19T16:05:53.351Z,97419.06
2023-01-19T16:08:22.221Z,97406.44
2023-01-19T16:10:49.173Z,97431.50
2023-01-19T16:13:16.144Z,97439.47
2023-01-19T16:15:43.042Z,97437.13
2023-01-19T16:18:10.033Z,97428.34
2023-01-19T16:20:37.089Z,97427.34
2023-01-19T16:23:19.322Z,97438.59
2023-01-19T16:25:56.507Z,97431.47
2023-01-19T16:28:23.803Z,97444.44
2023-01-19T16:30:51.902Z,97441.25
2023-01-19T16:33:19.441Z,97447.41
2023-01-19T16:35:46.425Z,97442.44
2023-01-19T16:38:13.332Z,97453.75
2023-01-19T16:40:40.376Z,97447.09
2023-01-19T16:43:07.258Z,97448.13
2023-01-19T16:45:34.214Z,97454.75
2023-01-19T16:48:01.166Z,97457.25
2023-01-19T16:50:28.124Z,97463.34
2023-01-19T16:52:58.375Z,97451.75
2023-01-19T16:55:25.344Z,97465.38
2023-01-19T16:57:52.814Z,97453.56
2023-01-19T17:00:20.080Z,97446.78
2023-01-19T17:02:47.026Z,97455.06
2023-01-19T17:05:14.829Z,97457.88
2023-01-19T17:07:41.788Z,97459.69
2023-01-19T17:10:09.778Z,97451.59
2023-01-19T17:12:36.937Z,97461.88
2023-01-19T17:15:04.032Z,97454.59
2023-01-19T17:17:30.987Z,97458.59
2023-01-19T17:20:00.255Z,97457.06
2023-01-19T17:22:27.210Z,97450.91
2023-01-19T17:24:54.080Z,97461.72
2023-01-19T17:27:21.022Z,97463.22
2023-01-19T17:29:49.988Z,97458.22
2023-01-19T17:32:17.025Z,97461.72
2023-01-19T17:34:43.935Z,97455.06
2023-01-19T17:37:10.814Z,97464.69
2023-01-19T17:39:37.726Z,97458.75
2023-01-19T17:42:04.668Z,97460.56
2023-01-19T17:44:31.582Z,97457.91
2023-01-19T17:46:59.974Z,97464.41
2023-01-19T17:49:27.116Z,97477.16
2023-01-19T17:51:55.148Z,97473.00
2023-01-19T17:54:22.776Z,97467.19
2023-01-19T17:56:51.195Z,97471.00
2023-01-19T17:59:18.153Z,97464.66
2023-01-19T18:01:49.992Z,97475.00
2023-01-19T18:04:19.284Z,97434.59
2023-01-19T18:06:49.387Z,97479.97
2023-01-19T18:09:18.122Z,97487.59
2023-01-19T18:11:47.065Z,97492.91
2023-01-19T18:14:14.259Z,97487.94
2023-01-19T18:16:41.643Z,97488.63
2023-01-19T18:19:08.752Z,97489.44
2023-01-19T18:21:35.981Z,97497.13
2023-01-19T18:24:05.672Z,97481.66
2023-01-19T18:26:35.218Z,97498.28
2023-01-19T18:29:03.000Z,97452.22
2023-01-19T18:31:30.548Z,97482.31
2023-01-19T18:34:00.674Z,97489.44
2023-01-19T18:36:28.346Z,97487.25
2023-01-19T18:38:55.637Z,97489.75
2023-01-19T18:41:23.014Z,97498.91
2023-01-19T18:43:50.592Z,97479.59
2023-01-19T18:46:20.228Z,97494.22
2023-01-19T18:48:48.252Z,97473.28
2023-01-19T18:51:22.226Z,97494.38
2023-01-19T18:53:50.271Z,97506.16
2023-01-19T18:56:17.894Z,97496.00
2023-01-19T18:58:45.850Z,97503.84
2023-01-19T19:01:31.562Z,97509.66
2023-01-19T19:03:59.978Z,97507.69
2023-01-19T19:06:28.825Z,97508.19
2023-01-19T19:08:57.943Z,97518.47
2023-01-19T19:11:26.349Z,97491.38
2023-01-19T19:13:55.364Z,97531.59
2023-01-19T19:16:24.282Z,97530.41
2023-01-19T19:18:51.353Z,97509.75
2023-01-19T19:21:20.536Z,97527.53
2023-01-19T19:23:53.050Z,97530.69
2023-01-19T19:26:20.708Z,97528.88
2023-01-19T19:28:47.752Z,97541.53
2023-01-19T19:31:20.690Z,97544.56
2023-01-19T19:33:49.196Z,97552.63
2023-01-19T19:36:16.129Z,97561.81
2023-01-19T19:38:44.749Z,97568.94
2023-01-19T19:41:15.065Z,97555.28
2023-01-19T19:43:42.199Z,97547.44
2023-01-19T19:46:11.737Z,97569.72
2023-01-19T19:48:39.565Z,97569.34
2023-01-19T19:51:23.793Z,97580.81
2023-01-19T19:53:52.082Z,97568.00
2023-01-19T19:56:21.711Z,97577.63
2023-01-19T19:58:49.760Z,97572.47
2023-01-19T20:01:19.685Z,97573.41
2023-01-19T20:03:47.201Z,97547.59
2023-01-19T20:06:18.411Z,97585.38
2023-01-19T20:08:45.355Z,97587.16
2023-01-19T20:11:15.910Z,97597.78
2023-01-19T20:13:44.441Z,97616.56
2023-01-19T20:16:17.117Z,97607.75
2023-01-19T20:18:51.076Z,97618.91
2023-01-19T20:21:19.637Z,97625.66
2023-01-19T20:23:48.269Z,97620.56
2023-01-19T20:26:18.220Z,97627.53
2023-01-19T20:28:45.157Z,97632.34
2023-01-19T20:31:21.949Z,97631.81
2023-01-19T20:33:49.991Z,97626.50
2023-01-19T20:36:17.393Z,97639.38
2023-01-19T20:38:45.220Z,97617.38
2023-01-19T20:41:13.636Z,97649.06
2023-01-19T20:43:40.834Z,97649.91
2023-01-19T20:46:07.788Z,97659.81
2023-01-19T20:48:34.763Z,97657.94
2023-01-19T20:51:05.151Z,97665.44
2023-01-19T20:53:32.631Z,97667.72
2023-01-19T20:56:05.258Z,97660.97
2023-01-19T20:58:33.166Z,97667.41
2023-01-19T21:01:00.199Z,97662.56
2023-01-19T21:03:27.308Z,97666.06
2023-01-19T21:05:54.243Z,97661.22
2023-01-19T21:08:21.266Z,97657.72
2023-01-19T21:10:48.215Z,97667.81
2023-01-19T21:13:15.142Z,97666.16
2023-01-19T21:15:42.057Z,97671.69
2023-01-19T21:18:08.964Z,97677.50
2023-01-19T21:20:36.002Z,97678.59
2023-01-19T21:23:02.882Z,97674.31
2023-01-19T21:25:29.888Z,97676.06
2023-01-19T21:27:56.863Z,97681.38
2023-01-19T21:30:23.913Z,97673.09
2023-01-19T21:32:50.838Z,97687.97
2023-01-19T21:35:17.781Z,97686.78
2023-01-19T21:37:44.692Z,97687.44
2023-01-19T21:40:12.560Z,97683.06
2023-01-19T21:42:40.750Z,97691.16
2023-01-19T21:45:08.912Z,97697.38
2023-01-19T21:47:36.831Z,97694.72
2023-01-19T21:50:04.530Z,97704.03
2023-01-19T21:52:31.544Z,97702.72
2023-01-19T21:54:58.534Z,97707.06
2023-01-19T21:57:25.464Z,97716.09
2023-01-19T21:59:52.359Z,97711.13
2023-01-19T22:02:33.336Z,97714.63
2023-01-19T22:05:06.771Z,97720.47
2023-01-19T22:07:33.766Z,97720.16
2023-01-19T22:10:00.664Z,97725.16
2023-01-19T22:12:27.601Z,97717.88
2023-01-19T22:14:54.602Z,97720.19
2023-01-19T22:17:21.524Z,97724.53
2023-01-19T22:19:48.802Z,97722.53
2023-01-19T22:22:15.814Z,97728.59
2023-01-19T22:24:46.808Z,97730.78
2023-01-19T22:27:14.045Z,97729.72
2023-01-19T22:29:40.990Z,97727.44
2023-01-19T22:32:07.995Z,97732.97
2023-01-19T22:34:35.124Z,97731.66
2023-01-19T22:37:02.637Z,97721.59
2023-01-19T22:39:29.525Z,97739.13
2023-01-19T22:41:56.438Z,97744.13
2023-01-19T22:44:23.821Z,97699.09
2023-01-19T22:46:54.051Z,97730.09
2023-01-19T22:49:23.891Z,97738.28
2023-01-19T22:51:51.045Z,97741.59
2023-01-19T22:54:17.957Z,97747.97
2023-01-19T22:56:46.041Z,97746.16
2023-01-19T22:59:13.044Z,97746.69
2023-01-19T23:01:42.405Z,97748.50
2023-01-19T23:04:13.361Z,97748.34
2023-01-19T23:06:40.341Z,97756.78
2023-01-19T23:09:12.282Z,97741.78
2023-01-19T23:11:42.042Z,97759.41
2023-01-19T23:14:12.305Z,97756.47
2023-01-19T23:16:39.285Z,97751.78
2023-01-19T23:19:06.260Z,97761.03
2023-01-19T23:21:33.633Z,97757.09
2023-01-19T23:24:03.609Z,97756.50
2023-01-19T23:26:31.797Z,97738.50
2023-01-19T23:29:02.022Z,97757.94
2023-01-19T23:31:34.206Z,97771.03
2023-01-19T23:34:07.247Z,97770.38
2023-01-19T23:36:36.485Z,97775.59
2023-01-19T23:39:12.544Z,97787.66
2023-01-19T23:41:39.469Z,97789.53
2023-01-19T23:44:06.373Z,97792.75
2023-01-19T23:46:33.448Z,97789.34
2023-01-19T23:49:00.409Z,97796.97
2023-01-19T23:51:29.816Z,97800.94
2023-01-19T23:53:58.285Z,97797.63
2023-01-19T23:56:34.354Z,97793.75
2023-01-19T23:59:04.191Z,97791.47
